Terminal Aerodrome Forecast
Issued by NWS

Home | Current Version | Previous Version | Text Only | Print | Product List | Glossary On
Versions: 1 2 3 4 5 6 7 8 9 10 11 12 13 14 15
715
FTUS46 KSEW 221730
TAFBFI
TAF
KBFI 221730Z 2218/2318 20009G17KT P6SM FEW018 SCT040 SCT100
     FM222100 21008KT P6SM SCT030 BKN100
     FM230600 13004KT P6SM SCT120 BKN250
     FM231300 12003KT P6SM SCT008=

USA.gov is the U.S. government's official web portal to all federal, state and local government web resources and services.